Time;durP1;ratioP1;P1;durP2;ratioP2;P2;SDS_P1;SDS_P2;PMS_P1;PMS_P2;Temp;Humidity;BMP_temperature;BMP_pressure;BME280_temperature;BME280_humidity;BME280_pressure;Samples;Min_cycle;Max_cycle;Signal;HPM_P1;HPM_P2
2021/05/09 00:04:43;;;;;;;3.90;1.10;;;20.90;49.90;;;;;;20751075;28;20049;-21
2021/05/09 00:14:43;;;;;;;3.40;1.02;;;20.80;49.70;;;;;;20747112;28;20033;-23
2021/05/09 00:24:44;;;;;;;2.58;0.98;;;20.80;49.60;;;;;;20747381;28;20022;-23
2021/05/09 00:34:44;;;;;;;1.75;0.80;;;20.80;49.30;;;;;;20747923;28;20481;-22
2021/05/09 00:44:45;;;;;;;2.33;0.77;;;20.80;49.20;;;;;;20746503;28;20129;-22
2021/05/09 00:54:55;;;;;;;1.35;0.65;;;20.70;49.00;;;;;;20730504;28;20034;-22
2021/05/09 01:04:56;;;;;;;2.90;0.85;;;20.60;48.90;;;;;;20741793;28;20524;-22
2021/05/09 01:14:57;;;;;;;2.08;1.20;;;20.60;49.00;;;;;;20743556;28;20033;-22
2021/05/09 01:24:57;;;;;;;6.03;1.60;;;20.60;48.90;;;;;;20741373;28;20066;-22
2021/05/09 01:34:58;;;;;;;4.40;1.80;;;20.60;48.80;;;;;;20738297;28;20045;-22
2021/05/09 01:44:58;;;;;;;2.10;1.00;;;20.50;48.80;;;;;;20738743;28;20042;-21
2021/05/09 01:54:59;;;;;;;2.40;1.10;;;20.50;48.70;;;;;;20738471;28;20037;-22
2021/05/09 02:05:00;;;;;;;3.15;1.27;;;20.40;48.60;;;;;;20738814;28;20041;-22
2021/05/09 02:15:00;;;;;;;4.03;0.90;;;20.40;48.50;;;;;;20736896;28;20034;-21
2021/05/09 02:25:01;;;;;;;1.53;0.80;;;20.40;48.50;;;;;;20736607;28;20082;-22
2021/05/09 02:35:02;;;;;;;1.45;0.70;;;20.40;48.50;;;;;;20735852;28;20481;-22
2021/05/09 02:45:05;;;;;;;1.55;0.80;;;20.40;48.50;;;;;;20743713;28;20053;-22
2021/05/09 02:55:06;;;;;;;2.30;0.82;;;20.30;48.40;;;;;;20753805;28;20061;-21
2021/05/09 03:05:07;;;;;;;2.65;0.85;;;20.30;48.40;;;;;;20752932;28;20037;-22
2021/05/09 03:15:09;;;;;;;2.72;0.90;;;20.30;48.40;;;;;;20752492;28;20030;-21
2021/05/09 03:25:10;;;;;;;1.63;0.88;;;20.20;48.30;;;;;;20751893;28;20022;-21
2021/05/09 03:35:11;;;;;;;1.73;0.80;;;20.20;48.30;;;;;;20751236;28;20048;-21
2021/05/09 03:45:12;;;;;;;1.27;0.65;;;20.20;48.30;;;;;;20750976;28;20516;-21
2021/05/09 03:55:13;;;;;;;2.97;1.02;;;20.20;48.20;;;;;;20749394;28;20032;-21
2021/05/09 04:05:14;;;;;;;3.67;0.80;;;20.10;48.10;;;;;;20749028;28;20050;-21
2021/05/09 04:15:15;;;;;;;2.13;1.15;;;20.10;48.10;;;;;;20747909;28;20105;-21
2021/05/09 04:25:15;;;;;;;3.25;1.00;;;20.10;48.10;;;;;;20747638;28;20516;-21
2021/05/09 04:35:16;;;;;;;3.15;1.02;;;20.10;48.10;;;;;;20749743;28;20018;-22
2021/05/09 04:45:17;;;;;;;1.63;1.00;;;20.10;48.10;;;;;;20752104;28;20037;-22
2021/05/09 04:55:17;;;;;;;3.38;1.05;;;20.00;47.90;;;;;;20750904;28;20498;-22
2021/05/09 05:05:18;;;;;;;1.52;0.65;;;20.00;48.00;;;;;;20756262;28;20026;-21
2021/05/09 05:15:18;;;;;;;2.05;0.73;;;20.00;48.00;;;;;;20757045;28;20034;-23
2021/05/09 05:25:19;;;;;;;0.80;0.50;;;20.00;48.00;;;;;;20772381;28;20053;-22
2021/05/09 05:35:20;;;;;;;1.88;0.93;;;20.00;48.00;;;;;;20769542;28;20396;-22
2021/05/09 05:45:20;;;;;;;2.03;0.47;;;19.90;47.90;;;;;;20760491;28;20030;-21
2021/05/09 05:55:21;;;;;;;5.70;1.20;;;20.00;47.90;;;;;;20745785;28;20034;-22
2021/05/09 06:05:22;;;;;;;3.25;0.82;;;19.90;47.80;;;;;;20730956;28;20559;-29
2021/05/09 06:15:22;;;;;;;2.38;0.93;;;19.90;47.70;;;;;;20739300;28;20489;-22
2021/05/09 06:25:23;;;;;;;1.30;0.77;;;20.20;47.20;;;;;;20735885;28;20396;-22
2021/05/09 06:35:24;;;;;;;2.10;1.10;;;20.90;46.00;;;;;;20735493;28;20065;-22
2021/05/09 06:45:27;;;;;;;2.08;0.80;;;21.70;44.50;;;;;;20734797;28;20508;-22
2021/05/09 06:55:29;;;;;;;1.35;0.73;;;22.50;43.10;;;;;;20734445;28;20029;-22
2021/05/09 07:05:29;;;;;;;1.67;0.65;;;23.00;42.30;;;;;;20733728;28;20022;-22
2021/05/09 07:15:39;;;;;;;5.65;1.10;;;22.70;43.00;;;;;;20734251;28;20042;-22
2021/05/09 07:25:40;;;;;;;6.00;1.13;;;22.50;43.50;;;;;;20734572;28;20120;-21
2021/05/09 07:35:42;;;;;;;22.65;4.47;;;22.20;44.10;;;;;;20745350;28;20500;-22
2021/05/09 07:45:44;;;;;;;18.60;3.92;;;22.00;44.80;;;;;;20746378;28;20113;-22
2021/05/09 07:55:45;;;;;;;19.08;4.38;;;21.80;45.20;;;;;;20748487;28;20033;-22
2021/05/09 08:05:46;;;;;;;19.65;5.65;;;21.60;45.70;;;;;;20750792;28;20033;-22
2021/05/09 08:15:46;;;;;;;20.87;4.37;;;21.50;46.30;;;;;;20745967;28;20030;-22
2021/05/09 08:25:47;;;;;;;16.08;4.65;;;21.40;47.00;;;;;;20749534;28;20978;-22
2021/05/09 08:35:47;;;;;;;27.07;5.20;;;21.30;47.80;;;;;;20746676;28;20040;-21
2021/05/09 08:45:48;;;;;;;11.60;3.20;;;21.10;48.70;;;;;;20748934;28;20560;-22
2021/05/09 08:55:49;;;;;;;6.80;2.03;;;21.00;48.90;;;;;;20744724;28;20026;-22
2021/05/09 09:05:51;;;;;;;7.40;3.20;;;21.00;48.20;;;;;;20744658;28;20100;-23
2021/05/09 09:16:01;;;;;;;5.25;2.08;;;20.90;48.20;;;;;;20741615;28;20036;-22
2021/05/09 09:26:02;;;;;;;6.10;2.25;;;20.80;48.00;;;;;;20738282;28;20028;-22
2021/05/09 09:36:19;;;;;;;7.38;1.55;;;20.80;47.80;;;;;;20739436;28;20560;-22
2021/05/09 09:46:31;;;;;;;4.63;1.75;;;20.90;47.30;;;;;;20740290;28;20065;-22
2021/05/09 09:56:33;;;;;;;4.40;1.42;;;20.90;47.00;;;;;;20737158;28;20029;-22
2021/05/09 10:06:34;;;;;;;2.70;1.08;;;21.00;46.70;;;;;;20735677;28;20026;-22
2021/05/09 10:16:37;;;;;;;3.92;1.65;;;21.00;46.60;;;;;;20733973;28;20022;-22
2021/05/09 10:26:53;;;;;;;2.72;1.27;;;21.00;47.00;;;;;;20735578;28;20026;-22
2021/05/09 10:36:55;;;;;;;1.63;0.80;;;21.00;47.10;;;;;;20732795;28;20022;-22
2021/05/09 10:47:06;;;;;;;2.45;1.20;;;21.10;47.30;;;;;;20737083;28;20056;-21
2021/05/09 10:57:45;;;;;;;6.72;1.23;;;21.10;48.30;;;;;;20735285;28;20539;-22
2021/05/09 11:07:46;;;;;;;3.30;1.23;;;21.10;48.30;;;;;;20742807;28;20029;-21
2021/05/09 11:17:47;;;;;;;8.75;1.63;;;21.10;48.10;;;;;;20750321;28;20041;-22
2021/05/09 11:27:48;;;;;;;3.28;1.35;;;21.10;48.40;;;;;;20749968;28;20030;-22
2021/05/09 11:37:48;;;;;;;3.08;1.60;;;21.20;47.90;;;;;;20749119;28;20135;-21
2021/05/09 11:47:49;;;;;;;3.83;1.25;;;21.30;47.80;;;;;;20749210;28;20088;-21
2021/05/09 11:57:49;;;;;;;2.53;1.37;;;21.40;47.80;;;;;;20743305;28;20030;-21
2021/05/09 12:07:55;;;;;;;4.17;1.77;;;21.40;48.30;;;;;;20751188;28;20041;-23
2021/05/09 12:17:57;;;;;;;3.65;1.45;;;21.50;48.30;;;;;;20745939;28;20545;-22
2021/05/09 12:28:29;;;;;;;2.33;1.02;;;21.60;48.30;;;;;;20747058;28;20107;-22
2021/05/09 12:38:34;;;;;;;4.57;1.25;;;21.70;48.50;;;;;;20651847;28;20441;-22
2021/05/09 12:48:35;;;;;;;6.72;2.80;;;21.70;48.80;;;;;;20650516;28;20137;-21
2021/05/09 12:59:23;;;;;;;3.05;1.05;;;21.80;48.50;;;;;;20654983;28;20154;-21
2021/05/09 13:09:26;;;;;;;3.87;1.87;;;21.80;48.60;;;;;;20682930;28;20046;-21
2021/05/09 13:19:26;;;;;;;4.07;2.00;;;21.80;48.60;;;;;;20748194;28;20293;-22
2021/05/09 13:29:27;;;;;;;3.40;1.58;;;21.80;48.80;;;;;;20749593;28;20436;-22
2021/05/09 13:39:28;;;;;;;6.03;2.08;;;21.90;48.60;;;;;;20742245;28;20436;-22
2021/05/09 13:49:28;;;;;;;3.05;1.92;;;21.80;49.00;;;;;;20744344;28;20045;-22
2021/05/09 13:59:29;;;;;;;2.78;1.30;;;21.80;49.10;;;;;;20740021;28;20485;-21
2021/05/09 14:09:29;;;;;;;3.28;1.50;;;21.90;49.60;;;;;;20725375;28;20398;-21
2021/05/09 14:19:30;;;;;;;1.77;1.20;;;22.00;50.20;;;;;;20738242;28;20026;-21
2021/05/09 14:29:30;;;;;;;5.30;1.73;;;21.90;49.40;;;;;;20738294;28;20117;-21
2021/05/09 14:39:31;;;;;;;5.38;1.85;;;22.00;49.00;;;;;;20741475;28;20058;-21
2021/05/09 14:49:32;;;;;;;3.92;1.80;;;22.10;48.90;;;;;;20755067;28;20488;-21
2021/05/09 14:59:33;;;;;;;2.50;1.33;;;22.10;48.80;;;;;;20753903;28;20396;-21
2021/05/09 15:09:33;;;;;;;3.38;1.20;;;22.10;48.70;;;;;;20753246;28;20470;-22
2021/05/09 15:19:39;;;;;;;1.60;0.93;;;22.10;47.90;;;;;;20752085;28;20061;-22
2021/05/09 15:29:40;;;;;;;5.03;1.52;;;22.20;47.80;;;;;;20751000;28;20400;-22
2021/05/09 15:39:40;;;;;;;3.78;1.52;;;22.20;47.30;;;;;;20749864;28;20045;-22
2021/05/09 15:49:41;;;;;;;4.93;4.43;;;22.20;46.90;;;;;;20746446;28;20034;-22
2021/05/09 15:59:41;;;;;;;3.33;1.87;;;22.20;46.40;;;;;;20746776;28;20500;-23
2021/05/09 16:09:43;;;;;;;11.80;1.45;;;22.20;45.90;;;;;;20747885;28;20034;-22
2021/05/09 16:19:47;;;;;;;8.10;4.35;;;22.20;46.10;;;;;;20745751;28;20034;-22
2021/05/09 16:29:48;;;;;;;9.20;5.13;;;22.10;46.50;;;;;;20749717;28;20022;-22
2021/05/09 16:39:48;;;;;;;7.00;3.75;;;22.10;46.70;;;;;;20744100;28;20053;-21
2021/05/09 16:49:49;;;;;;;3.65;2.70;;;22.00;46.50;;;;;;20762695;28;20040;-22
2021/05/09 16:59:50;;;;;;;4.27;2.20;;;22.00;47.10;;;;;;20753192;28;20052;-22
2021/05/09 17:09:50;;;;;;;6.93;2.27;;;22.00;46.80;;;;;;20740182;28;20891;-22
2021/05/09 17:19:51;;;;;;;8.02;2.22;;;22.00;46.90;;;;;;20769494;28;20524;-22
2021/05/09 17:29:52;;;;;;;6.53;1.90;;;22.00;47.00;;;;;;20750802;28;20073;-22
2021/05/09 17:39:53;;;;;;;4.07;1.73;;;22.00;46.80;;;;;;20743297;28;20045;-22
2021/05/09 17:49:53;;;;;;;6.65;1.52;;;21.90;47.10;;;;;;20738594;28;20038;-22
2021/05/09 17:59:54;;;;;;;7.13;2.95;;;21.80;47.20;;;;;;20734637;28;20041;-22
2021/05/09 18:09:55;;;;;;;11.02;2.38;;;21.80;48.00;;;;;;20740499;28;20424;-22
2021/05/09 18:30:16;;;;;;;7.80;2.67;;;21.80;47.80;;;;;;20739560;28;20033;-22
2021/05/09 18:40:16;;;;;;;7.50;2.25;;;21.70;48.60;;;;;;20737818;28;20378;-22
2021/05/09 18:50:17;;;;;;;6.88;2.08;;;21.70;48.60;;;;;;20738098;28;20037;-22
2021/05/09 19:00:18;;;;;;;3.50;1.40;;;21.70;48.00;;;;;;20735249;28;20542;-22
2021/05/09 19:10:20;;;;;;;8.13;2.05;;;21.50;48.70;;;;;;20736552;28;20449;-22
2021/05/09 19:20:20;;;;;;;6.03;1.50;;;21.50;48.60;;;;;;20736979;28;20076;-22
2021/05/09 19:30:29;;;;;;;3.75;1.48;;;21.50;48.50;;;;;;20747821;28;20030;-21
2021/05/09 19:40:30;;;;;;;7.00;2.60;;;21.30;48.80;;;;;;20751031;28;20049;-21
2021/05/09 19:50:31;;;;;;;6.13;1.77;;;21.40;49.00;;;;;;20750060;28;20033;-21
2021/05/09 20:00:31;;;;;;;6.43;2.43;;;21.30;49.30;;;;;;20749155;28;20041;-22
2021/05/09 20:10:32;;;;;;;4.88;1.60;;;21.30;49.70;;;;;;20750090;28;20808;-21
2021/05/09 20:20:34;;;;;;;3.83;1.30;;;21.30;50.20;;;;;;20749896;28;20018;-22
2021/05/09 20:30:35;;;;;;;4.82;1.90;;;21.30;49.90;;;;;;20751863;28;20034;-23
2021/05/09 20:40:35;;;;;;;5.22;2.33;;;21.40;49.90;;;;;;20691708;28;20485;-22
2021/05/09 20:50:36;;;;;;;6.47;2.25;;;21.40;49.90;;;;;;20688227;28;20121;-22
2021/05/09 21:00:37;;;;;;;4.13;1.90;;;21.40;49.90;;;;;;20743595;28;20493;-20
2021/05/09 21:10:37;;;;;;;4.95;1.88;;;21.30;50.00;;;;;;20744440;28;20030;-23
2021/05/09 21:20:38;;;;;;;3.85;2.10;;;21.20;50.10;;;;;;20741397;28;20108;-22
2021/05/09 21:30:39;;;;;;;2.22;1.48;;;21.10;50.20;;;;;;20747630;28;20018;-22
2021/05/09 21:40:40;;;;;;;16.77;3.78;;;21.10;50.30;;;;;;20738603;28;20038;-22
2021/05/09 21:50:41;;;;;;;16.70;3.65;;;21.10;52.50;;;;;;20736070;28;20053;-22
2021/05/09 22:00:42;;;;;;;5.32;2.53;;;21.00;52.70;;;;;;20728791;28;20026;-21
2021/05/09 22:10:43;;;;;;;9.65;2.60;;;21.00;53.30;;;;;;20736561;28;20157;-22
2021/05/09 22:20:44;;;;;;;11.50;2.88;;;21.00;52.90;;;;;;20735916;28;20049;-21
2021/05/09 22:30:45;;;;;;;14.77;3.63;;;21.00;52.80;;;;;;20735696;28;20030;-21
2021/05/09 22:40:45;;;;;;;9.50;2.57;;;21.00;52.60;;;;;;20735460;28;20053;-21
2021/05/09 22:50:46;;;;;;;10.80;2.55;;;21.00;52.30;;;;;;20755664;28;20553;-22
2021/05/09 23:00:47;;;;;;;6.97;2.38;;;21.00;52.10;;;;;;20746329;28;20104;-22
2021/05/09 23:10:47;;;;;;;7.05;2.42;;;21.00;52.00;;;;;;20751902;28;20037;-23
2021/05/09 23:21:30;;;;;;;4.22;1.92;;;21.00;51.80;;;;;;20750021;28;20543;-23
2021/05/09 23:31:08;;;;;;;3.67;1.98;;;20.90;51.70;;;;;;20752930;28;20084;-22
2021/05/09 23:41:09;;;;;;;6.65;2.08;;;20.90;51.60;;;;;;20749003;28;20030;-23
2021/05/09 23:51:09;;;;;;;3.50;1.90;;;21.00;51.50;;;;;;20802688;22;20050;-21
